createdAt,value
2018-05-17T00:01:21.972Z,99.90
2018-05-17T00:03:50.432Z,99.90
2018-05-17T00:06:19.774Z,99.90
2018-05-17T00:08:48.257Z,99.90
2018-05-17T00:11:16.770Z,99.90
2018-05-17T00:13:45.367Z,99.90
2018-05-17T00:16:13.907Z,99.90
2018-05-17T00:18:42.877Z,99.90
2018-05-17T00:21:12.207Z,99.90
2018-05-17T00:23:40.705Z,99.90
2018-05-17T00:26:09.156Z,99.90
2018-05-17T00:28:37.605Z,99.90
2018-05-17T00:31:06.217Z,99.90
2018-05-17T00:33:34.680Z,99.90
2018-05-17T00:36:03.169Z,99.90
2018-05-17T00:38:31.686Z,99.90
2018-05-17T00:41:00.178Z,99.90
2018-05-17T00:43:28.671Z,99.90
2018-05-17T00:45:57.210Z,99.90
2018-05-17T00:48:25.692Z,99.90
2018-05-17T00:50:54.179Z,99.90
2018-05-17T00:53:32.304Z,99.90
2018-05-17T00:56:00.741Z,99.90
2018-05-17T00:58:29.233Z,99.90
2018-05-17T01:00:57.677Z,99.90
2018-05-17T01:03:26.154Z,99.90
2018-05-17T01:05:54.628Z,99.90
2018-05-17T01:08:23.091Z,99.90
2018-05-17T01:10:51.568Z,99.90
2018-05-17T01:13:20.074Z,99.90
2018-05-17T01:15:48.543Z,99.90
2018-05-17T01:18:17.056Z,99.90
2018-05-17T01:20:45.544Z,99.90
2018-05-17T01:23:14.013Z,99.90
2018-05-17T01:25:42.473Z,99.90
2018-05-17T01:28:10.962Z,99.90
2018-05-17T01:30:39.418Z,99.90
2018-05-17T01:33:07.865Z,99.90
2018-05-17T01:35:36.337Z,99.90
2018-05-17T01:38:34.552Z,99.90
2018-05-17T01:41:03.014Z,99.90
2018-05-17T01:43:31.462Z,99.90
2018-05-17T01:45:59.904Z,99.90
2018-05-17T01:48:28.382Z,99.90
2018-05-17T01:50:57.635Z,99.90
2018-05-17T01:53:26.088Z,99.90
2018-05-17T01:55:54.569Z,99.90
2018-05-17T01:58:23.022Z,99.90
2018-05-17T02:00:51.483Z,99.90
2018-05-17T02:03:19.983Z,99.90
2018-05-17T02:05:48.458Z,99.90
2018-05-17T02:08:16.964Z,99.90
2018-05-17T02:10:45.469Z,99.90
2018-05-17T02:13:14.002Z,99.90
2018-05-17T02:15:42.500Z,99.90
2018-05-17T02:18:11.007Z,99.90
2018-05-17T02:20:39.529Z,99.90
2018-05-17T02:23:08.070Z,99.90
2018-05-17T02:25:36.569Z,99.90
2018-05-17T02:28:05.056Z,99.90
2018-05-17T02:30:33.528Z,99.90
2018-05-17T02:33:02.043Z,99.90
2018-05-17T02:35:30.566Z,99.90
2018-05-17T02:37:59.001Z,99.90
2018-05-17T02:40:27.497Z,99.90
2018-05-17T02:42:56.004Z,99.90
2018-05-17T02:45:24.459Z,99.90
2018-05-17T02:47:52.952Z,99.90
2018-05-17T02:50:22.173Z,99.90
2018-05-17T02:52:51.451Z,99.90
2018-05-17T02:55:19.915Z,99.90
2018-05-17T02:57:48.346Z,99.90
2018-05-17T03:00:16.793Z,99.90
2018-05-17T03:02:45.250Z,99.90
2018-05-17T03:05:14.366Z,99.90
2018-05-17T03:07:42.808Z,99.90
2018-05-17T03:10:11.243Z,99.90
2018-05-17T03:12:40.498Z,99.90
2018-05-17T03:15:08.937Z,99.90
2018-05-17T03:17:37.452Z,99.90
2018-05-17T03:20:05.956Z,99.90
2018-05-17T03:22:34.555Z,99.90
2018-05-17T03:25:03.059Z,99.90
2018-05-17T03:27:31.559Z,99.90
2018-05-17T03:30:00.092Z,99.90
2018-05-17T03:32:28.566Z,99.90
2018-05-17T03:34:57.091Z,99.90
2018-05-17T03:37:25.570Z,99.90
2018-05-17T03:39:54.127Z,99.90
2018-05-17T03:42:22.624Z,99.90
2018-05-17T03:44:51.096Z,99.90
2018-05-17T03:47:19.545Z,99.90
2018-05-17T03:49:48.755Z,99.90
2018-05-17T03:52:17.244Z,99.90
2018-05-17T03:54:45.706Z,99.90
2018-05-17T03:57:14.198Z,99.90
2018-05-17T03:59:43.541Z,99.90
2018-05-17T04:02:29.469Z,99.90
2018-05-17T04:08:18.025Z,99.90
2018-05-17T04:10:46.462Z,99.90
2018-05-17T04:13:14.923Z,99.90
2018-05-17T04:15:43.414Z,99.90
2018-05-17T04:18:11.877Z,99.90
2018-05-17T04:20:40.367Z,99.90
2018-05-17T04:23:08.848Z,99.90
2018-05-17T04:25:37.282Z,99.90
2018-05-17T04:28:05.795Z,99.90
2018-05-17T04:30:34.317Z,99.90
2018-05-17T04:33:02.777Z,99.90
2018-05-17T04:35:31.231Z,99.90
2018-05-17T04:37:59.999Z,99.90
2018-05-17T04:40:28.601Z,99.90
2018-05-17T04:42:57.110Z,99.90
2018-05-17T04:45:27.517Z,99.90
2018-05-17T04:47:56.764Z,99.90
2018-05-17T04:50:25.226Z,99.90
2018-05-17T04:52:53.661Z,99.90
2018-05-17T04:55:22.865Z,99.90
2018-05-17T04:57:51.332Z,99.90
2018-05-17T05:00:19.803Z,99.90
2018-05-17T05:02:48.320Z,99.90
2018-05-17T05:05:16.838Z,99.90
2018-05-17T05:07:46.058Z,99.90
2018-05-17T05:10:14.556Z,99.90
2018-05-17T05:12:43.032Z,99.90
2018-05-17T05:15:11.587Z,99.90
2018-05-17T05:17:40.113Z,99.90
2018-05-17T05:20:08.639Z,99.90
2018-05-17T05:22:37.116Z,99.90
2018-05-17T05:25:05.608Z,99.90
2018-05-17T05:27:34.031Z,99.90
2018-05-17T05:30:02.529Z,99.90
2018-05-17T05:32:31.741Z,99.90
2018-05-17T05:35:00.269Z,99.90
2018-05-17T05:37:28.838Z,99.90
2018-05-17T05:39:57.708Z,99.90
2018-05-17T05:42:26.132Z,99.90
2018-05-17T05:44:54.599Z,99.90
2018-05-17T05:47:23.093Z,99.90
2018-05-17T05:49:51.528Z,99.90
2018-05-17T05:52:20.012Z,99.90
2018-05-17T05:54:48.444Z,99.90
2018-05-17T05:57:16.954Z,99.90
2018-05-17T05:59:45.409Z,99.90
2018-05-17T06:02:13.897Z,99.90
2018-05-17T06:04:42.357Z,99.90
2018-05-17T06:07:10.857Z,99.90
2018-05-17T06:09:39.314Z,99.90
2018-05-17T06:12:09.249Z,99.90
2018-05-17T06:14:38.502Z,99.90
2018-05-17T06:17:07.878Z,99.90
2018-05-17T06:19:36.358Z,99.90
2018-05-17T06:22:04.928Z,99.90
2018-05-17T06:24:33.416Z,99.90
2018-05-17T06:27:02.675Z,99.90
2018-05-17T06:29:31.178Z,99.90
2018-05-17T06:31:59.670Z,99.90
2018-05-17T06:34:28.161Z,99.90
2018-05-17T06:36:57.394Z,99.90
2018-05-17T06:39:26.625Z,99.90
2018-05-17T06:41:55.130Z,99.90
2018-05-17T06:44:24.317Z,99.90
2018-05-17T06:46:52.782Z,99.90
2018-05-17T06:49:21.271Z,99.90
2018-05-17T06:51:49.728Z,99.90
2018-05-17T06:54:18.209Z,99.90
2018-05-17T06:56:46.688Z,99.90
2018-05-17T06:59:14.452Z,99.90
2018-05-17T07:01:43.640Z,99.90
2018-05-17T07:04:12.125Z,99.90
2018-05-17T07:06:40.615Z,99.90
2018-05-17T07:09:09.090Z,99.90
2018-05-17T07:11:37.581Z,99.90
2018-05-17T07:14:06.022Z,99.90
2018-05-17T07:16:34.468Z,99.90
2018-05-17T07:19:02.916Z,99.90
2018-05-17T07:21:31.403Z,99.90
2018-05-17T07:23:59.843Z,99.90
2018-05-17T07:26:28.349Z,99.90
2018-05-17T07:28:56.829Z,99.90
2018-05-17T07:31:26.105Z,99.40
2018-05-17T07:33:54.603Z,99.40
2018-05-17T07:36:23.083Z,99.90
2018-05-17T07:38:51.577Z,99.40
2018-05-17T07:41:20.771Z,99.90
2018-05-17T07:43:49.236Z,99.90
2018-05-17T07:46:17.710Z,99.90
2018-05-17T07:48:47.724Z,99.90
2018-05-17T07:51:16.220Z,99.90
2018-05-17T07:53:44.650Z,99.90
2018-05-17T07:56:13.121Z,99.90
2018-05-17T07:58:41.578Z,99.90
2018-05-17T08:01:10.840Z,99.20
2018-05-17T08:03:39.286Z,99.30
2018-05-17T08:06:07.720Z,98.80
2018-05-17T08:08:36.170Z,98.80
2018-05-17T08:11:04.600Z,98.90
2018-05-17T08:13:33.077Z,98.60
2018-05-17T08:16:01.512Z,98.70
2018-05-17T08:18:29.964Z,97.10
2018-05-17T08:20:58.391Z,97.50
2018-05-17T08:23:26.875Z,98.00
2018-05-17T08:25:55.294Z,97.80
2018-05-17T08:28:23.742Z,98.40
2018-05-17T08:30:52.181Z,98.40
2018-05-17T08:33:21.363Z,96.20
2018-05-17T08:35:49.824Z,96.10
2018-05-17T08:38:18.253Z,95.90
2018-05-17T08:40:46.723Z,95.00
2018-05-17T08:43:15.157Z,95.90
2018-05-17T08:45:43.595Z,95.70
2018-05-17T08:48:12.077Z,93.90
2018-05-17T08:50:40.515Z,95.90
2018-05-17T08:53:08.983Z,95.30
2018-05-17T08:55:37.408Z,95.50
2018-05-17T08:58:05.875Z,95.00
2018-05-17T09:00:34.317Z,95.00
2018-05-17T09:03:02.755Z,93.70
2018-05-17T09:05:32.005Z,92.80
2018-05-17T09:08:00.443Z,92.80
2018-05-17T09:10:28.897Z,93.50
2018-05-17T09:12:57.358Z,93.70
2018-05-17T09:15:25.831Z,93.90
2018-05-17T09:17:54.297Z,94.00
2018-05-17T09:20:23.529Z,93.00
2018-05-17T09:22:52.755Z,93.80
2018-05-17T09:25:21.951Z,92.40
2018-05-17T09:27:50.425Z,92.40
2018-05-17T09:30:18.829Z,93.20
2018-05-17T09:32:47.281Z,93.30
2018-05-17T09:35:15.719Z,92.10
2018-05-17T09:37:44.227Z,93.30
2018-05-17T09:40:12.697Z,93.00
2018-05-17T09:42:41.911Z,92.70
2018-05-17T09:45:10.344Z,92.70
2018-05-17T09:47:39.643Z,91.70
2018-05-17T09:50:08.055Z,91.70
2018-05-17T09:52:36.504Z,92.50
2018-05-17T09:55:04.965Z,92.70
2018-05-17T09:57:33.379Z,92.00
2018-05-17T10:00:02.611Z,92.40
2018-05-17T10:02:31.943Z,91.70
2018-05-17T10:05:00.413Z,91.70
2018-05-17T10:07:28.876Z,91.20
2018-05-17T10:09:57.304Z,87.90
2018-05-17T10:12:25.795Z,91.00
2018-05-17T10:14:54.670Z,91.10
2018-05-17T10:17:23.909Z,91.40
2018-05-17T10:19:52.562Z,91.50
2018-05-17T10:22:20.998Z,91.50
2018-05-17T10:24:50.222Z,90.50
2018-05-17T10:27:19.490Z,89.70
2018-05-17T10:29:47.953Z,89.70
2018-05-17T10:32:16.369Z,90.30
2018-05-17T10:34:44.834Z,89.40
2018-05-17T10:37:13.275Z,90.00
2018-05-17T10:39:41.743Z,88.60
2018-05-17T10:42:10.273Z,86.90
2018-05-17T10:44:38.664Z,88.70
2018-05-17T10:47:07.141Z,89.10
2018-05-17T10:49:35.557Z,88.20
2018-05-17T10:52:04.003Z,88.00
2018-05-17T10:54:32.501Z,86.80
2018-05-17T10:57:00.999Z,86.50
2018-05-17T10:59:29.428Z,86.10
2018-05-17T11:01:58.665Z,85.80
2018-05-17T11:04:27.090Z,85.90
2018-05-17T11:06:55.525Z,84.70
2018-05-17T11:09:23.966Z,87.20
2018-05-17T11:11:53.173Z,87.60
2018-05-17T11:14:22.435Z,88.30
2018-05-17T11:16:50.891Z,88.20
2018-05-17T11:19:19.358Z,82.20
2018-05-17T11:21:47.796Z,84.40
2018-05-17T11:24:16.270Z,84.80
2018-05-17T11:26:44.713Z,85.70
2018-05-17T11:29:13.203Z,86.20
2018-05-17T11:31:45.593Z,83.70
2018-05-17T11:34:14.016Z,82.40
2018-05-17T11:36:42.480Z,81.80
2018-05-17T11:39:11.023Z,82.40
2018-05-17T11:41:39.497Z,82.40
2018-05-17T11:44:08.376Z,81.40
2018-05-17T11:46:37.609Z,84.20
2018-05-17T11:49:06.086Z,84.00
2018-05-17T11:51:35.342Z,80.00
2018-05-17T11:54:04.573Z,79.90
2018-05-17T11:56:33.065Z,79.90
2018-05-17T11:59:01.514Z,81.20
2018-05-17T12:01:30.061Z,79.00
2018-05-17T12:03:58.493Z,78.70
2018-05-17T12:06:26.966Z,80.10
2018-05-17T12:08:55.439Z,80.00
2018-05-17T12:11:23.903Z,77.20
2018-05-17T12:13:53.140Z,78.40
2018-05-17T12:16:21.605Z,78.30
2018-05-17T12:18:50.057Z,79.30
2018-05-17T12:21:24.291Z,78.50
2018-05-17T12:23:52.737Z,79.20
2018-05-17T12:26:21.227Z,78.90
2018-05-17T12:28:49.662Z,78.70
2018-05-17T12:31:18.128Z,78.00
2018-05-17T12:33:46.600Z,77.60
2018-05-17T12:36:15.793Z,76.30
2018-05-17T12:38:44.298Z,76.00
2018-05-17T12:41:12.719Z,77.70
2018-05-17T12:43:41.208Z,77.40
2018-05-17T12:46:09.623Z,77.60
2018-05-17T12:48:38.051Z,77.20
2018-05-17T12:51:06.528Z,76.30
2018-05-17T12:53:34.956Z,76.60
2018-05-17T12:56:04.240Z,75.00
2018-05-17T12:58:32.705Z,74.80
2018-05-17T13:01:01.216Z,76.00
2018-05-17T13:03:29.669Z,76.00
2018-05-17T13:05:58.126Z,75.30
2018-05-17T13:08:26.544Z,72.90
2018-05-17T13:10:54.974Z,74.70
2018-05-17T13:13:23.433Z,72.70
2018-05-17T13:15:51.881Z,74.00
2018-05-17T13:18:20.351Z,73.20
2018-05-17T13:20:48.995Z,73.60
2018-05-17T13:23:17.414Z,75.10
2018-05-17T13:25:45.883Z,75.40
2018-05-17T13:28:14.311Z,74.30
2018-05-17T13:30:42.781Z,76.50
2018-05-17T13:33:11.212Z,75.20
2018-05-17T13:35:39.651Z,74.30
2018-05-17T13:38:08.099Z,74.30
2018-05-17T13:40:36.514Z,74.60
2018-05-17T13:43:05.003Z,72.60
2018-05-17T13:45:33.451Z,73.60
2018-05-17T13:48:01.859Z,74.80
2018-05-17T13:50:30.388Z,74.80
2018-05-17T13:52:58.841Z,73.20
2018-05-17T13:55:27.670Z,74.00
2018-05-17T13:57:56.096Z,73.20
2018-05-17T14:00:24.524Z,73.30
2018-05-17T14:02:52.985Z,74.80
2018-05-17T14:05:21.436Z,75.40
2018-05-17T14:07:49.962Z,74.20
2018-05-17T14:10:18.409Z,72.40
2018-05-17T14:12:46.853Z,71.10
2018-05-17T14:15:16.170Z,73.50
2018-05-17T14:17:44.611Z,73.60
2018-05-17T14:20:13.063Z,73.90
2018-05-17T14:22:41.484Z,71.40
2018-05-17T14:25:09.910Z,71.50
2018-05-17T14:27:39.159Z,72.80
2018-05-17T14:30:08.359Z,72.70
2018-05-17T14:32:43.778Z,72.30
2018-05-17T14:35:12.226Z,72.30
2018-05-17T14:37:41.502Z,72.70
2018-05-17T14:40:09.923Z,72.70
2018-05-17T14:42:38.344Z,71.00
2018-05-17T14:45:06.798Z,72.00
2018-05-17T14:47:35.225Z,71.60
2018-05-17T14:50:03.716Z,72.80
2018-05-17T14:52:32.136Z,69.80
2018-05-17T14:55:00.577Z,68.60
2018-05-17T14:57:29.038Z,71.00
2018-05-17T14:59:57.472Z,71.30
2018-05-17T15:02:25.927Z,71.50
2018-05-17T15:04:54.336Z,72.50
2018-05-17T15:07:22.780Z,72.20
2018-05-17T15:09:51.211Z,71.90
2018-05-17T15:12:20.454Z,72.80
2018-05-17T15:14:49.665Z,72.40
2018-05-17T15:17:18.144Z,72.50
2018-05-17T15:19:46.552Z,71.40
2018-05-17T15:22:14.979Z,72.30
2018-05-17T15:24:44.290Z,71.90
2018-05-17T15:27:13.451Z,71.20
2018-05-17T15:29:41.967Z,71.30
2018-05-17T15:32:10.332Z,71.60
2018-05-17T15:34:39.501Z,73.40
2018-05-17T15:37:07.939Z,73.00
2018-05-17T15:39:36.363Z,73.60
2018-05-17T15:42:05.593Z,72.40
2018-05-17T15:44:34.785Z,72.80
2018-05-17T15:47:03.226Z,72.80
2018-05-17T15:49:32.460Z,72.90
2018-05-17T15:52:01.654Z,72.00
2018-05-17T15:54:30.107Z,72.10
2018-05-17T15:56:58.553Z,72.80
2018-05-17T15:59:26.978Z,72.20
2018-05-17T16:01:55.438Z,72.50
2018-05-17T16:04:23.900Z,73.00
2018-05-17T16:06:53.145Z,70.80
2018-05-17T16:09:21.587Z,70.60
2018-05-17T16:11:50.012Z,72.50
2018-05-17T16:14:18.448Z,71.10
2018-05-17T16:16:47.665Z,71.60
2018-05-17T16:19:16.877Z,73.00
2018-05-17T16:21:45.343Z,73.00
2018-05-17T16:24:13.750Z,73.10
2018-05-17T16:26:42.188Z,72.10
2018-05-17T16:29:11.369Z,72.40
2018-05-17T16:31:39.820Z,71.70
2018-05-17T16:34:08.990Z,71.50
2018-05-17T16:36:37.484Z,71.50
2018-05-17T16:39:12.286Z,70.60
2018-05-17T16:41:40.748Z,70.30
2018-05-17T16:44:09.172Z,70.90
2018-05-17T16:46:37.626Z,72.20
2018-05-17T16:49:06.859Z,73.10
2018-05-17T16:51:35.287Z,73.10
2018-05-17T16:54:03.780Z,71.90
2018-05-17T16:56:32.244Z,72.10
2018-05-17T16:59:00.703Z,73.30
2018-05-17T17:01:29.127Z,72.20
2018-05-17T17:03:57.585Z,73.40
2018-05-17T17:06:26.808Z,73.50
2018-05-17T17:08:56.002Z,74.00
2018-05-17T17:11:24.575Z,74.00
2018-05-17T17:13:53.002Z,73.40
2018-05-17T17:16:21.448Z,75.00
2018-05-17T17:18:50.743Z,73.10
2018-05-17T17:21:24.214Z,73.00
2018-05-17T17:23:52.696Z,73.70
2018-05-17T17:26:21.921Z,74.90
2018-05-17T17:28:51.264Z,74.60
2018-05-17T17:31:19.953Z,74.70
2018-05-17T17:33:49.180Z,75.70
2018-05-17T17:36:17.673Z,75.60
2018-05-17T17:38:51.592Z,75.10
2018-05-17T17:41:20.397Z,74.90
2018-05-17T17:43:49.758Z,76.20
2018-05-17T17:46:19.025Z,76.50
2018-05-17T17:48:48.590Z,76.00
2018-05-17T17:51:17.498Z,77.50
2018-05-17T17:53:46.931Z,78.10
2018-05-17T17:56:15.621Z,78.00
2018-05-17T17:58:44.037Z,79.00
2018-05-17T18:01:13.715Z,79.40
2018-05-17T18:03:42.262Z,79.30
2018-05-17T18:06:10.815Z,79.80
2018-05-17T18:08:39.875Z,79.90
2018-05-17T18:11:09.291Z,80.50
2018-05-17T18:13:37.765Z,80.50
2018-05-17T18:16:06.365Z,80.50
2018-05-17T18:18:34.951Z,80.30
2018-05-17T18:21:03.383Z,81.20
2018-05-17T18:23:31.832Z,81.30
2018-05-17T18:26:00.291Z,81.90
2018-05-17T18:28:29.315Z,82.80
2018-05-17T18:30:57.889Z,82.80
2018-05-17T18:33:27.012Z,82.40
2018-05-17T18:35:55.917Z,83.00
2018-05-17T18:38:24.924Z,82.90
2018-05-17T18:40:53.404Z,83.20
2018-05-17T18:43:23.692Z,83.40
2018-05-17T18:45:54.284Z,83.90
2018-05-17T18:48:23.642Z,83.90
2018-05-17T18:50:53.301Z,84.30
2018-05-17T18:53:23.017Z,84.40
2018-05-17T18:55:53.489Z,85.00
2018-05-17T18:58:23.407Z,85.00
2018-05-17T19:00:54.842Z,86.20
2018-05-17T19:03:24.692Z,85.90
2018-05-17T19:05:54.397Z,86.10
2018-05-17T19:08:24.303Z,86.20
2018-05-17T19:10:54.020Z,86.80
2018-05-17T19:13:24.651Z,87.00
2018-05-17T19:15:54.375Z,87.90
2018-05-17T19:18:28.622Z,88.40
2018-05-17T19:20:58.618Z,89.10
2018-05-17T19:23:29.122Z,89.40
2018-05-17T19:25:58.789Z,89.40
2018-05-17T19:28:28.589Z,89.60
2018-05-17T19:30:58.444Z,88.50
2018-05-17T19:33:28.211Z,89.30
2018-05-17T19:35:58.616Z,90.00
2018-05-17T19:38:28.251Z,90.00
2018-05-17T19:40:57.790Z,90.30
2018-05-17T19:43:27.686Z,90.50
2018-05-17T19:45:58.435Z,90.70
2018-05-17T19:48:29.050Z,90.80
2018-05-17T19:50:58.839Z,90.80
2018-05-17T19:53:28.541Z,91.00
2018-05-17T19:55:58.265Z,91.60
2018-05-17T19:58:28.161Z,92.00
2018-05-17T20:00:58.680Z,91.90
2018-05-17T20:03:29.332Z,91.60
2018-05-17T20:05:59.786Z,92.40
2018-05-17T20:08:29.480Z,92.40
2018-05-17T20:10:59.195Z,92.30
2018-05-17T20:13:28.991Z,92.40
2018-05-17T20:16:01.903Z,92.00
2018-05-17T20:18:32.468Z,91.80
2018-05-17T20:21:02.938Z,92.40
2018-05-17T20:23:32.667Z,92.40
2018-05-17T20:26:02.381Z,92.70
2018-05-17T20:28:32.946Z,93.30
2018-05-17T20:31:02.488Z,93.30
2018-05-17T20:33:32.349Z,93.50
2018-05-17T20:36:02.929Z,93.50
2018-05-17T20:38:33.749Z,93.50
2018-05-17T20:41:04.347Z,93.90
2018-05-17T20:43:33.765Z,94.10
2018-05-17T20:46:03.305Z,94.10
2018-05-17T20:48:31.779Z,94.30
2018-05-17T20:51:00.272Z,94.30
2018-05-17T20:53:28.776Z,94.50
2018-05-17T20:55:57.386Z,94.80
2018-05-17T20:58:25.855Z,94.50
2018-05-17T21:00:55.049Z,94.60
2018-05-17T21:03:23.509Z,94.60
2018-05-17T21:05:51.949Z,94.00
2018-05-17T21:08:20.517Z,94.30
2018-05-17T21:10:49.823Z,94.50
2018-05-17T21:13:18.324Z,94.50
2018-05-17T21:15:46.825Z,94.60
2018-05-17T21:18:15.287Z,94.20
2018-05-17T21:20:43.727Z,94.20
2018-05-17T21:23:12.392Z,94.00
2018-05-17T21:25:40.881Z,94.60
2018-05-17T21:28:09.589Z,94.40
2018-05-17T21:30:38.152Z,94.60
2018-05-17T21:33:06.667Z,94.60
2018-05-17T21:35:35.130Z,94.90
2018-05-17T21:38:03.651Z,94.70
2018-05-17T21:40:32.064Z,94.80
2018-05-17T21:43:00.611Z,95.40
2018-05-17T21:45:29.851Z,96.00
2018-05-17T21:47:58.358Z,95.70
2018-05-17T21:50:27.547Z,95.30
2018-05-17T21:53:06.725Z,95.30
2018-05-17T21:55:35.178Z,95.60
2018-05-17T21:58:03.628Z,96.30
2018-05-17T22:00:32.240Z,96.50
2018-05-17T22:03:00.839Z,96.70
2018-05-17T22:05:29.310Z,96.50
2018-05-17T22:08:01.100Z,96.80
2018-05-17T22:10:29.597Z,97.00
2018-05-17T22:12:58.036Z,97.50
2018-05-17T22:15:26.689Z,97.10
2018-05-17T22:17:55.146Z,97.90
2018-05-17T22:20:23.763Z,97.70
2018-05-17T22:22:52.242Z,98.20
2018-05-17T22:25:20.691Z,98.20
2018-05-17T22:27:49.928Z,98.20
2018-05-17T22:30:19.144Z,98.40
2018-05-17T22:32:47.607Z,98.40
2018-05-17T22:35:16.093Z,98.30
2018-05-17T22:37:45.274Z,98.60
2018-05-17T22:40:15.520Z,99.10
2018-05-17T22:42:45.061Z,99.40
2018-05-17T22:45:14.036Z,99.40
2018-05-17T22:47:43.342Z,98.90
2018-05-17T22:50:11.807Z,99.00
2018-05-17T22:52:41.045Z,99.90
2018-05-17T22:55:15.267Z,99.90
2018-05-17T22:58:02.105Z,99.90
2018-05-17T23:00:30.582Z,99.90
2018-05-17T23:02:59.045Z,99.90
2018-05-17T23:05:28.565Z,99.90
2018-05-17T23:07:57.817Z,99.90
2018-05-17T23:10:26.285Z,99.90
2018-05-17T23:12:55.516Z,99.90
2018-05-17T23:15:24.810Z,99.90
2018-05-17T23:17:53.226Z,99.90
2018-05-17T23:20:21.699Z,99.90
2018-05-17T23:22:50.262Z,99.90
2018-05-17T23:25:19.494Z,99.90
2018-05-17T23:27:48.729Z,99.90
2018-05-17T23:30:17.558Z,99.90
2018-05-17T23:32:46.325Z,99.90
2018-05-17T23:35:14.740Z,99.90
2018-05-17T23:37:43.264Z,99.90
2018-05-17T23:40:30.181Z,99.90
2018-05-17T23:42:58.729Z,99.90
2018-05-17T23:45:27.177Z,99.90
2018-05-17T23:47:55.595Z,99.90
2018-05-17T23:50:24.046Z,99.90
2018-05-17T23:52:52.491Z,99.90
2018-05-17T23:55:20.945Z,99.50
2018-05-17T23:57:49.370Z,99.80
